Time;durP1;ratioP1;P1;durP2;ratioP2;P2;SDS_P1;SDS_P2;PMS_P1;PMS_P2;Temp;Humidity;BMP_temperature;BMP_pressure;BME280_temperature;BME280_humidity;BME280_pressure;Samples;Min_cycle;Max_cycle;Signal;HPM_P1;HPM_P2
2022/10/06 00:01:18;;;;;;;7.90;5.00;;;;;;;8.87;85.80;102109.92;107302;1251;73349;-74
2022/10/06 00:03:47;;;;;;;14.60;5.10;;;;;;;8.88;85.91;102108.31;107226;1251;61272;-78
2022/10/06 00:06:17;;;;;;;8.80;5.50;;;;;;;8.90;85.21;102112.21;107142;1253;58954;-76
2022/10/06 00:08:46;;;;;;;7.50;4.90;;;;;;;8.91;85.11;102111.82;107292;1251;72795;-73
2022/10/06 00:11:16;;;;;;;9.60;5.10;;;;;;;8.93;85.62;102111.58;107001;1254;70046;-75
2022/10/06 00:13:45;;;;;;;8.50;5.20;;;;;;;9.01;85.50;102107.73;107277;1251;70632;-76
2022/10/06 00:16:21;;;;;;;10.20;4.80;;;;;;;9.05;85.31;102109.33;107302;1250;71499;-74
2022/10/06 00:18:50;;;;;;;9.20;5.00;;;;;;;9.10;85.52;102102.83;107269;1251;63016;-77
2022/10/06 00:21:18;;;;;;;9.30;5.00;;;;;;;9.12;84.36;102099.45;107310;1251;60062;-77
2022/10/06 00:23:47;;;;;;;9.60;5.50;;;;;;;9.10;84.45;102096.43;107093;1252;71021;-79
2022/10/06 00:26:16;;;;;;;6.70;4.90;;;;;;;9.09;85.38;102095.41;107353;1251;72768;-77
2022/10/06 00:28:49;;;;;;;7.30;5.10;;;;;;;9.21;85.29;102094.67;107305;1251;70468;-75
2022/10/06 00:31:18;;;;;;;7.90;4.90;;;;;;;9.22;85.05;102101.10;107385;1251;72725;-76
2022/10/06 00:33:49;;;;;;;8.90;5.10;;;;;;;9.21;85.49;102107.55;107336;1251;62226;-76
2022/10/06 00:36:18;;;;;;;12.00;6.10;;;;;;;9.21;85.47;102107.05;107158;1252;60751;-76
2022/10/06 00:38:47;;;;;;;8.90;5.90;;;;;;;9.36;85.19;102100.66;107182;1253;71713;-76
2022/10/06 00:41:17;;;;;;;11.80;6.80;;;;;;;9.50;83.92;102097.91;107331;1250;72321;-75
2022/10/06 00:43:53;;;;;;;12.10;7.10;;;;;;;9.56;83.40;102085.08;107268;1250;68416;-76
2022/10/06 00:46:25;;;;;;;11.50;6.10;;;;;;;9.54;83.16;102079.14;107214;1253;72019;-78
2022/10/06 00:49:17;;;;;;;10.00;5.70;;;;;;;9.52;84.21;102078.33;107257;1251;62745;-74
2022/10/06 00:51:56;;;;;;;9.40;5.30;;;;;;;9.54;85.11;102084.50;107194;1251;59604;-75
2022/10/06 00:54:26;;;;;;;10.40;5.20;;;;;;;9.65;84.35;102082.23;107229;1251;72448;-78
2022/10/06 00:56:56;;;;;;;8.70;5.50;;;;;;;9.74;83.62;102074.50;107291;1251;70349;-75
2022/10/06 00:59:25;;;;;;;10.60;5.90;;;;;;;9.89;82.72;102063.17;107163;1253;69022;-74
2022/10/06 01:02:06;;;;;;;11.50;5.70;;;;;;;9.90;82.97;102068.20;107342;1251;71983;-74
2022/10/06 01:04:41;;;;;;;10.00;5.10;;;;;;;9.92;83.02;102065.33;107343;1251;60842;-76
2022/10/06 01:07:10;;;;;;;9.10;5.50;;;;;;;9.95;82.21;102050.04;109122;1251;60515;-76
2022/10/06 01:09:39;;;;;;;8.80;5.60;;;;;;;10.03;81.49;102045.29;107179;1251;73246;-77
2022/10/06 01:12:08;;;;;;;11.00;5.10;;;;;;;10.19;80.79;102051.96;107272;1251;68530;-74
2022/10/06 01:14:39;;;;;;;9.30;5.50;;;;;;;10.30;79.37;102048.52;107111;1251;69051;-75
2022/10/06 01:17:28;;;;;;;8.40;5.40;;;;;;;10.33;78.48;102038.59;107310;1251;74329;-78
2022/10/06 01:20:17;;;;;;;9.20;5.50;;;;;;;10.44;77.08;102038.27;107221;1254;60849;-78
2022/10/06 01:22:54;;;;;;;7.90;4.90;;;;;;;10.50;76.69;102039.51;107212;1254;61692;-78
2022/10/06 01:25:23;;;;;;;9.30;5.80;;;;;;;10.58;76.38;102039.42;107497;1251;72330;-77
2022/10/06 01:27:54;;;;;;;10.10;5.30;;;;;;;10.59;76.12;102039.22;107829;1251;70405;-76
2022/10/06 01:30:50;;;;;;;10.00;4.90;;;;;;;10.60;75.67;102038.98;108528;1250;68942;-74
2022/10/06 01:33:21;;;;;;;11.30;5.10;;;;;;;10.67;75.61;102042.97;107887;1251;71805;-74
2022/10/06 01:35:52;;;;;;;7.90;5.00;;;;;;;10.69;75.06;102039.75;107627;1251;61138;-78
2022/10/06 01:38:21;;;;;;;8.90;5.20;;;;;;;10.73;74.45;102033.95;107320;1251;60893;-74
2022/10/06 01:40:55;;;;;;;9.80;5.30;;;;;;;10.76;73.28;102038.33;107245;1251;73142;-74
2022/10/06 01:43:24;;;;;;;7.30;5.00;;;;;;;10.78;72.86;102041.88;106971;1251;70443;-72
2022/10/06 01:45:57;;;;;;;8.00;4.80;;;;;;;10.80;73.11;102041.95;107027;1251;67900;-76
2022/10/06 01:48:26;;;;;;;;;;;;;;;10.79;73.22;102043.53;106936;1253;71974;-75
2022/10/06 01:50:57;;;;;;;8.20;4.50;;;;;;;10.82;73.49;102046.91;107003;1251;62209;-76
2022/10/06 01:53:26;;;;;;;8.30;4.70;;;;;;;10.84;73.32;102041.05;107019;1253;60403;-76
2022/10/06 01:55:59;;;;;;;8.50;4.30;;;;;;;10.86;73.96;102043.17;107083;1251;72678;-80
2022/10/06 01:58:29;;;;;;;7.60;4.50;;;;;;;10.88;74.01;102038.03;107170;1251;72554;-81
2022/10/06 02:01:08;;;;;;;7.20;4.40;;;;;;;10.87;73.61;102036.35;107042;1251;70313;-80
2022/10/06 02:03:39;;;;;;;9.20;4.70;;;;;;;10.83;73.68;102023.49;107216;1251;71982;-81
2022/10/06 02:06:09;;;;;;;9.40;5.20;;;;;;;10.83;73.13;102030.80;107179;1251;61334;-80
2022/10/06 02:08:38;;;;;;;8.20;5.00;;;;;;;10.79;74.20;102030.65;106907;1252;60215;-81
2022/10/06 02:11:10;;;;;;;10.90;5.10;;;;;;;10.74;75.46;102027.79;107080;1251;70920;-81
2022/10/06 02:13:42;;;;;;;7.40;5.00;;;;;;;10.66;76.70;102031.34;107038;1250;72307;-81
2022/10/06 02:16:12;;;;;;;13.20;6.80;;;;;;;10.63;76.23;102037.25;107066;1251;68410;-81
2022/10/06 02:18:43;;;;;;;7.80;4.70;;;;;;;10.63;76.23;102034.45;107093;1250;74001;-80
2022/10/06 02:21:19;;;;;;;14.70;6.00;;;;;;;10.73;75.78;102037.41;107062;1251;61914;-81
2022/10/06 02:23:48;;;;;;;13.60;8.90;;;;;;;10.76;76.03;102028.90;107084;1253;60673;-79
2022/10/06 02:26:18;;;;;;;15.20;7.60;;;;;;;10.74;76.07;102026.76;107145;1251;72866;-79
2022/10/06 02:28:48;;;;;;;14.60;7.20;;;;;;;10.73;76.33;102028.02;107223;1251;71124;-81
2022/10/06 02:31:20;;;;;;;9.40;5.70;;;;;;;10.72;76.55;102026.69;107271;1251;68799;-78
2022/10/06 02:33:50;;;;;;;9.50;5.30;;;;;;;10.72;77.23;102029.96;107239;1251;71228;-73
2022/10/06 02:36:19;;;;;;;6.70;4.80;;;;;;;10.70;78.33;102030.98;107237;1251;60605;-72
2022/10/06 02:38:48;;;;;;;8.10;4.80;;;;;;;10.67;78.98;102030.60;107250;1251;60484;-75
2022/10/06 02:41:17;;;;;;;7.00;5.10;;;;;;;10.66;78.97;102032.03;107158;1251;73838;-74
2022/10/06 02:43:46;;;;;;;8.10;4.90;;;;;;;10.60;79.04;102032.34;107184;1249;71254;-75
2022/10/06 02:46:15;;;;;;;8.90;5.60;;;;;;;10.61;79.41;102033.89;107287;1251;68381;-74
2022/10/06 02:48:47;;;;;;;8.40;4.60;;;;;;;10.63;79.24;102036.89;107295;1251;72575;-75
2022/10/06 02:51:18;;;;;;;8.90;5.10;;;;;;;10.65;79.04;102038.39;107131;1251;61391;-75
2022/10/06 02:53:48;;;;;;;9.60;5.60;;;;;;;10.67;78.82;102040.00;107204;1250;61008;-77
2022/10/06 02:56:22;;;;;;;17.40;6.60;;;;;;;10.66;77.76;102042.34;107075;1251;73425;-76
2022/10/06 02:58:53;;;;;;;12.30;7.00;;;;;;;10.62;77.50;102035.75;106940;1251;73728;-76
2022/10/06 03:01:30;;;;;;;13.80;5.80;;;;;;;10.58;77.61;102030.04;107106;1251;70253;-76
2022/10/06 03:04:01;;;;;;;21.00;8.50;;;;;;;10.56;78.55;102026.61;107149;1251;73059;-76
2022/10/06 03:06:30;;;;;;;15.20;7.30;;;;;;;10.46;78.48;102024.55;106969;1252;60165;-77
2022/10/06 03:09:19;;;;;;;9.80;5.20;;;;;;;10.37;79.08;102024.98;107078;1250;60424;-76
2022/10/06 03:11:48;;;;;;;15.90;10.00;;;;;;;10.38;78.82;102024.27;107198;1251;73528;-75
2022/10/06 03:14:22;;;;;;;16.00;8.90;;;;;;;10.23;80.14;102018.36;107110;1251;71973;-79
2022/10/06 03:16:50;;;;;;;16.30;7.90;;;;;;;10.15;80.74;102016.84;107072;1251;70963;-79
2022/10/06 03:19:22;;;;;;;13.60;6.80;;;;;;;10.15;80.91;102017.38;107178;1250;72413;-72
2022/10/06 03:21:51;;;;;;;12.00;7.00;;;;;;;10.13;80.86;102018.34;107182;1251;61389;-75
2022/10/06 03:24:21;;;;;;;13.70;7.10;;;;;;;10.11;81.34;102021.77;107244;1251;58907;-78
2022/10/06 03:26:52;;;;;;;9.90;6.60;;;;;;;10.09;81.24;102024.98;107244;1250;73456;-78
2022/10/06 03:29:21;;;;;;;12.30;7.20;;;;;;;10.04;82.78;102030.43;107218;1251;69436;-77
2022/10/06 03:31:53;;;;;;;13.20;7.60;;;;;;;10.00;83.81;102031.88;107199;1251;67948;-75
2022/10/06 03:34:22;;;;;;;24.20;14.50;;;;;;;9.98;83.41;102035.09;107130;1251;73127;-74
2022/10/06 03:36:52;;;;;;;14.20;7.60;;;;;;;9.98;82.98;102031.07;107184;1251;60049;-72
2022/10/06 03:39:22;;;;;;;19.10;10.20;;;;;;;9.96;83.00;102025.46;107938;1249;59656;-75
2022/10/06 03:41:51;;;;;;;19.10;10.90;;;;;;;9.90;81.72;102027.66;107122;1252;71573;-75
2022/10/06 03:44:21;;;;;;;11.00;6.50;;;;;;;9.75;83.58;102034.64;107154;1251;71225;-73
2022/10/06 03:46:50;;;;;;;9.20;6.30;;;;;;;9.70;84.29;102033.82;107011;1251;69100;-75
2022/10/06 03:49:19;;;;;;;9.90;5.50;;;;;;;9.65;85.40;102033.73;107143;1251;72270;-73
2022/10/06 03:51:48;;;;;;;11.80;4.80;;;;;;;9.59;83.50;102037.48;107252;1250;61317;-78
2022/10/06 03:54:21;;;;;;;8.80;6.00;;;;;;;9.48;84.87;102040.60;107084;1250;60495;-75
2022/10/06 03:56:52;;;;;;;11.00;6.00;;;;;;;9.44;86.39;102038.19;107032;1251;73219;-75
2022/10/06 03:59:21;;;;;;;11.80;7.00;;;;;;;9.44;86.23;102039.73;107264;1251;71984;-74
2022/10/06 04:01:51;;;;;;;10.80;6.60;;;;;;;9.45;86.40;102043.19;107076;1251;68345;-79
2022/10/06 04:04:27;;;;;;;10.70;6.20;;;;;;;9.46;87.17;102043.99;107204;1251;74293;-83
2022/10/06 04:07:02;;;;;;;12.10;5.90;;;;;;;9.46;87.08;102046.96;107373;1251;60175;-88
2022/10/06 04:09:31;;;;;;;12.30;7.00;;;;;;;9.51;86.12;102049.49;107219;1251;61342;-73
2022/10/06 04:12:01;;;;;;;11.70;6.10;;;;;;;9.59;86.18;102050.85;107290;1251;72680;-79
2022/10/06 04:14:32;;;;;;;13.10;6.90;;;;;;;9.67;86.17;102051.72;107368;1250;70712;-80
2022/10/06 04:17:01;;;;;;;15.40;7.60;;;;;;;9.63;85.12;102047.39;107359;1249;68806;-78
2022/10/06 04:19:32;;;;;;;10.70;7.60;;;;;;;9.58;84.47;102054.59;107150;1251;73973;-80
2022/10/06 04:22:01;;;;;;;11.80;7.70;;;;;;;9.51;84.65;102055.23;107263;1251;60333;-80
2022/10/06 04:24:31;;;;;;;13.40;7.80;;;;;;;9.55;84.90;102048.79;107971;1249;60485;-75
2022/10/06 04:29:55;;;;;;;14.10;7.80;;;;;;;9.49;86.05;102050.64;107397;1251;70480;-80
2022/10/06 04:32:24;;;;;;;15.20;8.20;;;;;;;9.48;86.21;102050.00;107479;1251;68789;-81
2022/10/06 04:34:53;;;;;;;15.40;8.80;;;;;;;9.49;86.75;102051.33;107591;1249;72353;-78
2022/10/06 04:37:22;;;;;;;17.80;9.00;;;;;;;9.48;86.77;102050.88;107564;1249;58922;-81
2022/10/06 04:39:51;;;;;;;26.00;10.70;;;;;;;9.48;87.38;102051.92;107540;1249;61462;-77
2022/10/06 04:42:20;;;;;;;17.90;8.90;;;;;;;9.48;87.40;102055.55;107524;1250;70924;-80
2022/10/06 04:44:49;;;;;;;15.80;10.00;;;;;;;9.47;86.89;102060.66;107180;1250;71472;-79
2022/10/06 04:47:17;;;;;;;20.30;11.10;;;;;;;9.43;86.84;102061.52;107178;1250;70451;-79
2022/10/06 04:49:46;;;;;;;15.00;10.30;;;;;;;9.40;87.36;102070.00;107304;1251;73082;-80
2022/10/06 04:52:15;;;;;;;23.70;11.30;;;;;;;9.40;87.18;102076.10;107293;1249;63565;-82
2022/10/06 04:54:44;;;;;;;21.30;10.90;;;;;;;9.37;87.39;102077.48;107295;1251;60588;-81
2022/10/06 04:57:13;;;;;;;20.20;10.90;;;;;;;9.36;87.44;102079.07;107235;1251;70939;-80
2022/10/06 05:02:36;;;;;;;23.80;10.10;;;;;;;9.34;87.34;102078.15;107370;1251;68755;-81
2022/10/06 05:05:06;;;;;;;21.20;9.90;;;;;;;9.34;88.28;102080.05;107351;1250;73065;-78
2022/10/06 05:07:35;;;;;;;22.60;11.90;;;;;;;9.36;88.28;102082.02;106991;1250;388383;-80
2022/10/06 05:10:04;;;;;;;26.20;12.40;;;;;;;9.39;88.33;102084.86;107277;1250;60506;-80
2022/10/06 05:12:33;;;;;;;25.50;12.10;;;;;;;9.41;88.26;102084.21;107189;1253;72160;-79
2022/10/06 05:15:04;;;;;;;24.90;10.50;;;;;;;9.45;87.99;102085.41;107621;1251;70377;-81
2022/10/06 05:17:32;;;;;;;19.20;9.90;;;;;;;9.50;87.30;102080.84;107740;1249;69732;-80
2022/10/06 05:20:01;;;;;;;15.70;8.80;;;;;;;9.54;86.72;102078.21;107023;1251;74238;-79
2022/10/06 05:22:30;;;;;;;17.90;9.40;;;;;;;9.64;86.25;102074.15;107268;1251;59783;-80
2022/10/06 05:24:59;;;;;;;25.80;9.60;;;;;;;9.76;85.45;102079.65;107139;1252;60070;-80
2022/10/06 05:27:28;;;;;;;20.60;10.80;;;;;;;9.89;81.37;102080.61;107448;1249;73673;-79
2022/10/06 05:29:57;;;;;;;34.70;11.80;;;;;;;10.00;82.77;102083.72;107226;1251;71300;-84
2022/10/06 05:32:26;;;;;;;21.90;9.60;;;;;;;10.12;83.71;102086.97;107224;1251;68471;-84
2022/10/06 05:34:55;;;;;;;20.10;8.30;;;;;;;10.27;80.81;102090.95;107131;1251;72064;-81
2022/10/06 05:37:24;;;;;;;15.20;8.10;;;;;;;10.35;78.72;102088.98;107232;1250;61354;-78
2022/10/06 05:39:53;;;;;;;11.90;7.70;;;;;;;10.51;77.62;102093.26;107403;1249;59170;-82
2022/10/06 05:42:22;;;;;;;30.90;18.50;;;;;;;10.63;76.24;102089.73;107317;1249;73633;-83
2022/10/06 05:44:57;;;;;;;57.40;38.40;;;;;;;10.95;74.47;102091.72;107194;1251;70756;-85
2022/10/06 05:47:26;;;;;;;47.30;27.20;;;;;;;11.34;73.10;102090.86;107340;1249;68862;-79
2022/10/06 05:49:55;;;;;;;1159.80;197.30;;;;;;;11.59;71.93;102090.02;107387;1250;74007;-85
2022/10/06 05:52:23;;;;;;;1999.90;351.90;;;;;;;11.92;70.23;102096.11;107365;1251;59326;-83
2022/10/06 05:54:52;;;;;;;1959.40;283.30;;;;;;;12.09;68.26;102096.70;107376;1250;58982;-82
2022/10/06 05:57:22;;;;;;;1999.90;331.90;;;;;;;12.23;67.94;102099.94;107400;1250;73660;-81
2022/10/06 05:59:50;;;;;;;691.20;95.20;;;;;;;12.39;67.47;102100.93;107320;1251;70764;-82
2022/10/06 06:02:19;;;;;;;1138.60;152.90;;;;;;;12.51;67.12;102108.77;107259;1250;68116;-81
2022/10/06 06:04:48;;;;;;;307.90;39.10;;;;;;;12.58;66.09;102107.67;107251;1251;71252;-75
2022/10/06 06:07:17;;;;;;;434.40;54.80;;;;;;;12.62;65.61;102104.80;107350;1249;61393;-75
2022/10/06 06:09:46;;;;;;;1548.10;231.80;;;;;;;12.82;64.87;102106.09;107082;1252;60199;-75
2022/10/06 06:12:15;;;;;;;706.00;94.30;;;;;;;12.96;64.52;102107.52;107161;1249;71723;-73
2022/10/06 06:17:45;;;;;;;144.80;21.20;;;;;;;13.07;63.92;102104.58;107300;1250;69101;-76
2022/10/06 06:20:14;;;;;;;249.90;34.70;;;;;;;12.96;64.07;102103.69;107186;1250;73187;-76
2022/10/06 06:22:42;;;;;;;551.90;75.30;;;;;;;12.98;64.29;102105.66;107213;1250;61670;-74
2022/10/06 06:25:11;;;;;;;306.60;45.90;;;;;;;13.02;64.27;102112.93;107183;1252;59780;-75
2022/10/06 06:27:42;;;;;;;1342.10;201.20;;;;;;;13.09;64.18;102119.64;107317;1249;71053;-76
2022/10/06 06:30:11;;;;;;;253.70;41.40;;;;;;;13.17;64.31;102121.45;107293;1250;72009;-83
2022/10/06 06:32:40;;;;;;;1614.80;229.60;;;;;;;13.13;64.11;102128.34;107208;1250;70227;-74
2022/10/06 06:35:10;;;;;;;896.70;128.50;;;;;;;13.18;64.15;102133.25;107248;1251;73119;-74
2022/10/06 06:37:39;;;;;;;139.20;25.90;;;;;;;13.24;63.99;102128.02;107223;1249;60703;-74
2022/10/06 06:40:08;;;;;;;141.30;25.20;;;;;;;13.28;63.64;102130.27;107281;1250;59336;-74
2022/10/06 06:42:38;;;;;;;429.20;59.70;;;;;;;13.41;63.34;102131.16;107307;1249;72763;-72
2022/10/06 06:46:06;;;;;;;497.40;74.50;;;;;;;13.57;61.97;102133.02;106846;1257;71504;-70
2022/10/06 06:48:54;;;;;;;145.90;25.30;;;;;;;13.66;61.88;102127.35;106747;1257;70971;-72
2022/10/06 06:51:24;;;;;;;123.60;20.60;;;;;;;13.81;61.38;102124.34;106983;1251;74515;-72
2022/10/06 06:53:53;;;;;;;166.40;29.10;;;;;;;13.87;60.76;102122.90;107289;1249;59696;-71
2022/10/06 06:56:22;;;;;;;118.50;21.20;;;;;;;13.97;61.09;102125.56;107177;1251;60516;-74
2022/10/06 06:58:51;;;;;;;61.90;15.40;;;;;;;14.04;60.54;102124.40;107163;1250;74733;-71
2022/10/06 07:01:22;;;;;;;33.20;11.10;;;;;;;13.93;60.32;102122.84;107225;1251;69266;-73
2022/10/06 07:03:57;;;;;;;40.20;11.00;;;;;;;13.86;60.74;102122.07;108456;1250;70353;-72
2022/10/06 07:06:31;;;;;;;33.60;10.70;;;;;;;13.91;60.79;102123.17;107584;1249;74068;-71
2022/10/06 07:09:03;;;;;;;68.00;13.40;;;;;;;13.88;60.50;102121.08;107273;1251;59766;-73
2022/10/06 07:11:38;;;;;;;62.10;12.60;;;;;;;14.00;60.30;102121.36;107172;1250;61323;-74
2022/10/06 07:14:17;;;;;;;69.90;14.00;;;;;;;14.10;60.01;102118.61;107105;1249;72999;-76
2022/10/06 07:25:25;;;;;;;13.30;6.30;;;;;;;14.51;57.92;102127.45;107207;1249;58901;-72
2022/10/06 07:27:57;;;;;;;344.20;46.60;;;;;;;14.54;58.13;102124.81;107124;1250;60723;-72
2022/10/06 07:30:33;;;;;;;889.50;125.30;;;;;;;14.61;58.27;102125.23;107100;1249;74329;-73
2022/10/06 07:33:19;;;;;;;261.90;39.20;;;;;;;14.87;57.58;102129.80;107006;1249;72954;-72
2022/10/06 07:35:49;;;;;;;301.70;36.00;;;;;;;14.90;57.05;102124.52;107004;1250;72139;-74
2022/10/06 07:38:24;;;;;;;233.50;33.20;;;;;;;14.92;56.94;102124.59;107046;1249;73895;-73
2022/10/06 07:40:57;;;;;;;150.00;23.60;;;;;;;15.02;56.39;102123.17;107123;1249;61405;-75
2022/10/06 07:43:48;;;;;;;;;;;;;;;15.18;55.41;102117.67;107066;1249;61097;-73
2022/10/06 07:46:17;;;;;;;124.00;22.10;;;;;;;15.29;55.51;102113.77;107094;1249;74295;-74
2022/10/06 07:49:05;;;;;;;214.40;32.90;;;;;;;15.42;54.67;102113.20;107060;1249;69655;-75
2022/10/06 07:51:34;;;;;;;80.50;15.50;;;;;;;15.58;54.66;102113.63;107080;1251;69004;-72
2022/10/06 07:54:03;;;;;;;24.40;7.70;;;;;;;15.71;54.39;102109.94;107184;1249;72498;-71
2022/10/06 07:56:40;;;;;;;1212.20;214.30;;;;;;;15.77;53.98;102108.04;107200;1249;60534;-75
2022/10/06 07:59:09;;;;;;;337.80;43.70;;;;;;;15.84;52.76;102106.13;107271;1249;59269;-75
2022/10/06 08:01:38;;;;;;;8.30;5.30;;;;;;;15.78;52.91;102104.35;107335;1249;72649;-74
2022/10/06 08:04:07;;;;;;;13.40;5.20;;;;;;;15.94;53.49;102105.96;107171;1251;70387;-72
2022/10/06 08:06:37;;;;;;;10.20;4.60;;;;;;;16.07;53.27;102102.04;107211;1249;69264;-74
2022/10/06 08:09:06;;;;;;;7.30;4.40;;;;;;;16.17;51.10;102097.77;107194;1249;74388;-72
2022/10/06 08:11:34;;;;;;;9.10;4.90;;;;;;;16.11;51.82;102097.30;107208;1249;60928;-73
2022/10/06 08:14:03;;;;;;;9.70;4.80;;;;;;;16.18;51.28;102101.73;107228;1249;59499;-74
2022/10/06 08:16:32;;;;;;;13.40;5.40;;;;;;;16.23;51.86;102103.45;107316;1249;71986;-76
2022/10/06 08:19:01;;;;;;;226.80;28.00;;;;;;;16.25;51.59;102099.14;107267;1249;72134;-73
2022/10/06 08:21:35;;;;;;;18.30;5.00;;;;;;;16.41;50.38;102099.85;107267;1250;67306;-73
2022/10/06 08:24:04;;;;;;;390.70;45.10;;;;;;;16.43;49.78;102103.00;107304;1249;73955;-75
2022/10/06 08:26:33;;;;;;;202.30;20.20;;;;;;;16.40;50.35;102099.91;107255;1249;61404;-73
2022/10/06 08:29:02;;;;;;;9.10;4.50;;;;;;;16.52;50.60;102100.42;107319;1249;60940;-75
2022/10/06 08:31:31;;;;;;;13.90;4.70;;;;;;;16.68;50.59;102099.91;107361;1249;73083;-72
2022/10/06 08:34:00;;;;;;;10.80;4.70;;;;;;;16.83;49.91;102101.11;107418;1249;71786;-73
2022/10/06 08:36:29;;;;;;;54.30;8.50;;;;;;;16.72;49.80;102103.81;107438;1249;70665;-76
2022/10/06 08:39:00;;;;;;;142.70;17.00;;;;;;;16.66;51.15;102100.08;107388;1249;71557;-75
2022/10/06 08:41:49;;;;;;;8.20;4.40;;;;;;;16.90;50.61;102099.48;107411;1250;62081;-74
2022/10/06 08:45:02;;;;;;;79.20;13.40;;;;;;;16.96;50.19;102092.98;107415;1249;60748;-73
2022/10/06 08:47:35;;;;;;;1733.60;243.00;;;;;;;16.83;49.77;102095.61;107269;1249;73263;-76
2022/10/06 08:50:09;;;;;;;;;;;;;;;16.93;50.14;102089.60;107423;1249;72630;-74
2022/10/06 08:53:03;;;;;;;68.00;10.70;;;;;;;17.09;49.25;102090.06;107305;1249;62161;-75
2022/10/06 08:55:59;;;;;;;188.10;23.00;;;;;;;17.05;48.97;102090.58;107340;1249;71737;-76
2022/10/06 08:58:53;;;;;;;10.80;4.20;;;;;;;17.22;49.22;102081.65;107250;1250;60576;-77
2022/10/06 09:01:32;;;;;;;10.90;4.40;;;;;;;17.44;48.61;102092.95;107335;1249;60107;-79
2022/10/06 09:04:06;;;;;;;92.10;14.50;;;;;;;17.51;48.54;102087.06;107271;1249;73247;-74
2022/10/06 09:07:07;;;;;;;8.90;4.30;;;;;;;17.57;47.87;102090.64;107287;1250;61930;-72
2022/10/06 09:09:45;;;;;;;110.60;15.30;;;;;;;17.64;47.42;102088.67;107208;1250;68909;-73
2022/10/06 09:12:17;;;;;;;9.00;3.70;;;;;;;17.76;47.46;102086.36;107309;1250;63666;-73
2022/10/06 09:14:55;;;;;;;129.00;15.70;;;;;;;17.85;46.92;102090.08;107231;1249;59095;-74
2022/10/06 09:17:36;;;;;;;6.50;3.80;;;;;;;17.87;45.94;102088.96;107349;1249;61289;-74
2022/10/06 09:20:31;;;;;;;7.50;3.20;;;;;;;17.96;45.73;102085.73;107208;1249;63731;-76
2022/10/06 09:23:05;;;;;;;9.10;4.10;;;;;;;18.02;45.65;102088.27;107268;1250;60985;-78
2022/10/06 09:25:36;;;;;;;8.50;3.70;;;;;;;18.06;45.50;102089.71;107348;1248;59099;-75
2022/10/06 09:28:14;;;;;;;18.20;4.80;;;;;;;18.07;45.71;102092.98;107317;1250;63636;-75
2022/10/06 09:30:43;;;;;;;6.20;3.10;;;;;;;18.15;45.57;102092.17;107058;1250;57400;-79
2022/10/06 09:33:20;;;;;;;6.90;3.70;;;;;;;18.22;44.43;102090.12;107219;1250;60597;-75
2022/10/06 09:36:10;;;;;;;7.30;3.60;;;;;;;18.35;44.95;102091.72;107362;1249;72256;-76
2022/10/06 09:38:52;;;;;;;87.90;12.60;;;;;;;18.44;44.71;102088.44;107292;1250;72243;-77
2022/10/06 09:41:33;;;;;;;7.40;4.70;;;;;;;18.50;45.15;102089.39;107373;1249;59473;-72
2022/10/06 09:44:23;;;;;;;7.30;3.60;;;;;;;18.59;45.09;102088.16;107369;1249;73475;-75
2022/10/06 09:46:52;;;;;;;17.50;7.50;;;;;;;18.67;44.51;102085.33;107284;1250;58770;-75
2022/10/06 09:49:26;;;;;;;16.70;5.80;;;;;;;18.78;44.55;102085.42;107435;1249;59040;-74
2022/10/06 09:52:12;;;;;;;14.60;8.20;;;;;;;18.82;43.38;102080.88;107403;1249;73685;-76
2022/10/06 09:54:42;;;;;;;15.10;8.80;;;;;;;18.81;43.42;102081.14;107386;1249;73114;-79
2022/10/06 09:57:20;;;;;;;23.50;10.00;;;;;;;18.76;43.14;102077.13;107314;1249;70140;-77
2022/10/06 09:59:50;;;;;;;30.50;10.30;;;;;;;18.87;44.03;102074.41;107259;1249;73498;-79
2022/10/06 10:02:35;;;;;;;9.80;4.50;;;;;;;19.05;43.91;102074.86;107294;1249;61710;-76
2022/10/06 10:05:27;;;;;;;8.10;4.70;;;;;;;19.15;43.64;102071.27;107259;1249;57463;-76
2022/10/06 10:08:21;;;;;;;6.00;3.90;;;;;;;19.21;43.72;102065.80;107335;1249;63356;-76
2022/10/06 10:14:18;;;;;;;7.40;3.30;;;;;;;19.26;43.83;102059.59;107307;1249;59207;-74
2022/10/06 10:16:48;;;;;;;5.20;3.50;;;;;;;19.32;43.40;102058.50;107342;1249;73461;-76
2022/10/06 10:19:33;;;;;;;6.50;3.60;;;;;;;19.64;44.85;102057.92;107248;1249;60899;-78
2022/10/06 10:22:03;;;;;;;6.10;3.10;;;;;;;20.07;44.63;102055.18;107218;1249;62247;-79
2022/10/06 10:25:08;;;;;;;4.90;3.10;;;;;;;20.36;42.61;102055.84;107236;1249;73398;-77
2022/10/06 10:27:51;;;;;;;8.00;3.10;;;;;;;20.74;42.05;102052.14;107357;1249;72820;-78
2022/10/06 10:30:19;;;;;;;6.50;3.30;;;;;;;21.02;40.14;102050.87;107346;1249;61012;-77
2022/10/06 10:33:08;;;;;;;4.40;2.90;;;;;;;21.17;39.51;102048.35;107347;1249;63373;-78
2022/10/06 10:35:49;;;;;;;6.80;3.10;;;;;;;21.42;39.75;102053.11;107213;1249;62004;-74
2022/10/06 10:38:23;;;;;;;6.80;2.80;;;;;;;21.74;39.22;102049.39;107112;1250;61082;-77
2022/10/06 10:41:05;;;;;;;2.90;2.00;;;;;;;21.86;37.11;102042.88;107184;1249;73043;-76
2022/10/06 10:43:49;;;;;;;5.50;2.40;;;;;;;22.01;35.67;102042.60;107122;1249;62126;-81
2022/10/06 10:46:35;;;;;;;3.90;2.40;;;;;;;21.94;34.77;102038.48;106969;1251;59245;-76
2022/10/06 10:49:28;;;;;;;5.10;2.10;;;;;;;22.20;34.90;102034.54;107087;1251;62503;-77
2022/10/06 10:52:13;;;;;;;62.50;33.50;;;;;;;22.81;34.45;102034.77;107170;1249;59082;-75
2022/10/06 10:54:50;;;;;;;2.30;1.80;;;;;;;23.09;32.39;102029.06;107149;1249;60555;-79
2022/10/06 10:57:29;;;;;;;5.80;1.80;;;;;;;23.37;32.31;102030.23;107185;1249;72153;-78
2022/10/06 11:00:14;;;;;;;18.50;11.20;;;;;;;23.02;31.83;102026.45;107280;1250;71451;-79
2022/10/06 11:02:43;;;;;;;7.60;4.80;;;;;;;22.67;31.67;102029.53;107250;1249;61352;-80
2022/10/06 11:05:38;;;;;;;72.90;46.20;;;;;;;23.04;31.32;102026.80;107214;1249;73680;-78
2022/10/06 11:08:17;;;;;;;5.10;2.30;;;;;;;23.50;31.73;102021.51;107248;1250;61684;-78
2022/10/06 11:10:54;;;;;;;8.00;2.00;;;;;;;24.04;31.68;102024.95;107138;1250;58815;-80
2022/10/06 11:13:47;;;;;;;4.80;2.10;;;;;;;24.34;31.13;102018.07;107259;1249;73634;-76
2022/10/06 11:17:00;;;;;;;2.60;1.80;;;;;;;24.24;29.77;102017.73;107359;1249;61366;-77
2022/10/06 11:19:43;;;;;;;5.20;1.90;;;;;;;24.72;28.23;102019.43;106537;1256;70684;-79
2022/10/06 11:22:32;;;;;;;3.60;1.90;;;;;;;24.67;28.14;102010.36;107209;1251;72320;-79
2022/10/06 11:25:35;;;;;;;4.10;2.10;;;;;;;24.81;27.65;102011.40;107122;1251;58988;-78
2022/10/06 11:28:27;;;;;;;5.60;2.20;;;;;;;24.39;29.12;102011.52;107256;1249;59062;-80
2022/10/06 11:31:07;;;;;;;5.10;2.40;;;;;;;24.29;29.80;102011.70;107400;1249;72140;-78
2022/10/06 11:34:03;;;;;;;6.80;2.40;;;;;;;24.29;29.87;102010.92;107266;1249;61630;-80
2022/10/06 11:36:56;;;;;;;5.50;2.90;;;;;;;24.28;29.22;102006.27;107328;1249;69920;-79
2022/10/06 11:39:47;;;;;;;4.60;2.20;;;;;;;24.77;29.51;102005.41;107332;1249;63051;-76
2022/10/06 11:42:42;;;;;;;4.70;2.00;;;;;;;25.54;29.05;102006.25;107347;1249;58988;-81
2022/10/06 11:45:19;;;;;;;3.60;1.80;;;;;;;26.34;25.60;102001.70;107274;1249;58974;-78
2022/10/06 11:47:55;;;;;;;2.40;1.90;;;;;;;25.99;25.77;102003.71;107234;1250;73706;-78
2022/10/06 11:50:41;;;;;;;3.90;1.70;;;;;;;25.75;25.85;102004.04;107303;1249;73846;-76
2022/10/06 11:53:33;;;;;;;3.40;2.00;;;;;;;25.50;26.34;102002.62;107303;1249;60426;-71
2022/10/06 11:56:17;;;;;;;7.40;2.90;;;;;;;25.21;28.00;102000.09;107457;1249;73702;-77
2022/10/06 11:58:55;;;;;;;3.80;1.80;;;;;;;25.17;27.07;101999.02;107282;1249;62367;-78
2022/10/06 12:01:29;;;;;;;4.80;2.00;;;;;;;25.18;27.41;101996.23;107366;1249;61255;-74
2022/10/06 12:04:07;;;;;;;3.70;2.30;;;;;;;24.81;27.57;101992.73;107273;1249;63713;-77
2022/10/06 12:06:56;;;;;;;3.50;2.10;;;;;;;25.54;27.74;101994.66;107277;1249;61689;-76